Jamestown, NY

10:40 PM EST on January 18, 2017 (GMT -0500)
Chautauqua County-Jamestown

Weather History for KJHW - November, 2012

Change the Weather History Date:

Friday, November 2, 2012

  Actual Average Record
Temperature  
Mean Temperature 35 °F -  
Max Temperature 37 °F 57 °F 76 °F (1990)
Min Temperature 33 °F 33 °F 22 °F (1976)
Degree Days  
Heating Degree Days 30    
Moisture  
Dew Point 31 °F    
Average Humidity 85    
Maximum Humidity 93    
Minimum Humidity 70    
Precipitation  
Precipitation 0.11 in - - ()
Sea Level Pressure  
Sea Level Pressure 29.75 in    
Wind  
Wind Speed 10 mph (WNW)    
Max Wind Speed 17 mph    
Max Gust Speed 23 mph    
Visibility 8 miles    
Events      
Averages and records for this station are not official NWS values.
T = Trace of Precipitation, MM = Missing Value Source: NWS Daily Summary

Daily Weather History Graph

Daily Weather History Graph

Search for Another Location

Airport or City:

Trip Planner

Search our weather history database for the weather conditions in past years. The results will help you decide how hot, cold, wet, or windy it might be!

Date:

Astronomy

Nov. 02, 2012 Rise Set
Actual Time 7:51 AM EDT 6:08 PM EDT
Civil Twilight 7:22 AM EDT 6:38 PM EDT
Nautical Twilight 6:49 AM EDT 7:11 PM EDT
Astronomical Twilight 6:16 AM EDT 7:43 PM EDT
Moon 8:52 PM EDT (11/2) 11:13 AM EDT (11/2)
Length of Visible Light 11h 15m
Length of Day
10h 17m
Waning Gibbous, 87% of the Moon is Illuminated
Nov 2
Waning Gibbous
Nov 6
Last Quarter
Nov 13
New
Nov 20
First Quarter
Nov 28
Full

Hourly Weather History & Observations

Time (EDT) Temp. Windchill Dew Point Humidity Pressure Visibility Wind Dir Wind Speed Gust Speed Precip Events Conditions
12:15 AM 35.6 °F 29.2 °F 33.8 °F 93% 29.66 in 10.0 mi SW 8.1 mph - N/A   Overcast
12:35 AM 35.6 °F 30.7 °F 33.8 °F 93% 29.65 in 10.0 mi WSW 5.8 mph - N/A   Mostly Cloudy
12:55 AM 35.6 °F 29.2 °F 33.8 °F 93% 29.65 in 10.0 mi WSW 8.1 mph - N/A   Overcast
1:15 AM 35.6 °F 29.9 °F 33.8 °F 93% 29.65 in 10.0 mi SW 6.9 mph - N/A   Mostly Cloudy
1:35 AM 35.6 °F 29.9 °F 33.8 °F 93% 29.65 in 10.0 mi SW 6.9 mph - N/A   Mostly Cloudy
1:55 AM 35.6 °F 28.0 °F 33.8 °F 93% 29.65 in 4.0 mi West 10.4 mph - 0.01 in   Overcast
2:15 AM 35.6 °F 28.0 °F 32.0 °F 87% 29.65 in 5.0 mi West 10.4 mph - 0.02 in   Overcast
2:35 AM 33.8 °F 26.4 °F 30.2 °F 87% 29.66 in 4.0 mi West 9.2 mph - 0.03 in   Overcast
2:55 AM 33.8 °F 28.6 °F 32.0 °F 93% 29.65 in 5.0 mi WSW 5.8 mph - 0.04 in   Overcast
3:15 AM 33.8 °F 27.7 °F 32.0 °F 93% 29.65 in 8.0 mi WSW 6.9 mph - N/A   Overcast
3:35 AM 35.6 °F 29.9 °F 33.8 °F 93% 29.65 in 7.0 mi West 6.9 mph - N/A   Overcast
3:55 AM 35.6 °F 29.9 °F 33.8 °F 93% 29.65 in 10.0 mi WSW 6.9 mph - N/A   Mostly Cloudy
4:15 AM 35.6 °F 29.9 °F 33.8 °F 93% 29.65 in 10.0 mi WSW 6.9 mph - N/A   Mostly Cloudy
4:35 AM 35.6 °F 31.7 °F 33.8 °F 93% 29.64 in 7.0 mi SW 4.6 mph - N/A   Overcast
4:55 AM 35.6 °F 32.8 °F 33.8 °F 93% 29.64 in 6.0 mi West 3.5 mph - N/A   Overcast
5:15 AM 35.6 °F 30.7 °F 32.0 °F 87% 29.64 in 10.0 mi West 5.8 mph - N/A   Mostly Cloudy
5:35 AM 35.6 °F 29.2 °F 32.0 °F 87% 29.64 in 9.0 mi West 8.1 mph - 0.01 in   Mostly Cloudy
5:55 AM 35.6 °F 29.2 °F 32.0 °F 87% 29.65 in 10.0 mi West 8.1 mph - 0.01 in   Overcast
6:15 AM 35.6 °F 26.6 °F 32.0 °F 87% 29.65 in 10.0 mi WNW 13.8 mph 17.3 mph N/A   Overcast
6:35 AM 35.6 °F 26.2 °F 32.0 °F 87% 29.65 in 10.0 mi WNW 15.0 mph - N/A   Overcast
6:55 AM 35.6 °F 26.6 °F 30.2 °F 81% 29.65 in 10.0 mi WNW 13.8 mph - N/A   Overcast
7:15 AM 35.6 °F 26.6 °F 30.2 °F 81% 29.66 in 10.0 mi WNW 13.8 mph 20.7 mph N/A   Overcast
7:35 AM 35.6 °F 26.2 °F 30.2 °F 81% 29.66 in 10.0 mi WNW 15.0 mph - N/A   Overcast
7:55 AM 35.6 °F 26.2 °F 32.0 °F 87% 29.67 in 10.0 mi WNW 15.0 mph 21.9 mph N/A   Overcast
8:15 AM 35.6 °F 27.1 °F 30.2 °F 81% 29.67 in 9.0 mi NW 12.7 mph - N/A   Mostly Cloudy
8:35 AM 35.6 °F 28.0 °F 32.0 °F 87% 29.68 in 10.0 mi WNW 10.4 mph - N/A   Overcast
8:55 AM 35.6 °F 28.6 °F 32.0 °F 87% 29.69 in 9.0 mi North 9.2 mph - N/A   Overcast
9:15 AM 33.8 °F 26.4 °F 30.2 °F 87% 29.70 in 1.8 mi NW 9.2 mph - 0.01 in   Overcast
9:35 AM 33.8 °F 27.0 °F 30.2 °F 87% 29.70 in 1.0 mi NW 8.1 mph - 0.03 in   Overcast
9:55 AM 33.8 °F 26.4 °F 30.2 °F 87% 29.71 in 10.0 mi NW 9.2 mph - 0.03 in   Mostly Cloudy
10:15 AM 33.8 °F 25.3 °F 30.2 °F 87% 29.72 in 5.0 mi NNW 11.5 mph 17.3 mph N/A   Mostly Cloudy
10:35 AM 33.8 °F 25.8 °F 30.2 °F 87% 29.72 in 10.0 mi NW 10.4 mph - N/A   Overcast
10:55 AM 35.6 °F 28.0 °F 30.2 °F 81% 29.73 in 10.0 mi NW 10.4 mph - N/A   Overcast
11:15 AM 33.8 °F 26.4 °F 30.2 °F 87% 29.73 in 5.0 mi NW 9.2 mph 16.1 mph N/A   Overcast
11:35 AM 35.6 °F 27.1 °F 30.2 °F 81% 29.74 in 6.0 mi NW 12.7 mph - N/A   Overcast
11:55 AM 35.6 °F 27.5 °F 30.2 °F 81% 29.74 in 9.0 mi NW 11.5 mph - N/A   Overcast
12:15 PM 35.6 °F 29.2 °F 30.2 °F 81% 29.74 in 10.0 mi NW 8.1 mph - N/A   Overcast
12:35 PM 35.6 °F 26.6 °F 28.4 °F 75% 29.74 in 10.0 mi NW 13.8 mph 18.4 mph N/A   Overcast
12:55 PM 35.6 °F 28.0 °F 28.4 °F 75% 29.75 in 10.0 mi NW 10.4 mph - N/A   Overcast
1:15 PM 35.6 °F 28.0 °F 28.4 °F 75% 29.75 in 10.0 mi WNW 10.4 mph 19.6 mph N/A   Mostly Cloudy
1:35 PM 37.4 °F 28.5 °F 28.4 °F 70% 29.75 in 10.0 mi NW 15.0 mph 23.0 mph N/A   Overcast
1:55 PM 35.6 °F 27.5 °F 28.4 °F 75% 29.75 in 10.0 mi NW 11.5 mph - N/A   Overcast
2:15 PM 35.6 °F 25.9 °F 28.4 °F 75% 29.76 in 10.0 mi NW 16.1 mph 20.7 mph N/A   Overcast
2:35 PM 35.6 °F 25.5 °F 28.4 °F 75% 29.77 in 7.0 mi WNW 17.3 mph 20.7 mph N/A   Overcast
2:55 PM 35.6 °F 26.6 °F 28.4 °F 75% 29.77 in 10.0 mi NW 13.8 mph 17.3 mph N/A   Overcast
3:15 PM 35.6 °F 28.0 °F 28.4 °F 75% 29.78 in 10.0 mi WNW 10.4 mph - N/A   Overcast
3:35 PM 35.6 °F 26.2 °F 28.4 °F 75% 29.78 in 7.0 mi NW 15.0 mph 21.9 mph N/A   Overcast
3:55 PM 35.6 °F 27.1 °F 30.2 °F 81% 29.79 in 5.0 mi NW 12.7 mph 18.4 mph N/A   Overcast
4:15 PM 35.6 °F 28.0 °F 30.2 °F 81% 29.79 in 4.0 mi NW 10.4 mph 17.3 mph N/A   Overcast
4:35 PM 35.6 °F 28.6 °F 30.2 °F 81% 29.80 in 9.0 mi NW 9.2 mph 16.1 mph N/A   Overcast
4:55 PM 35.6 °F 27.1 °F 30.2 °F 81% 29.81 in 7.0 mi NW 12.7 mph 20.7 mph N/A   Mostly Cloudy
5:15 PM 33.8 °F 24.3 °F 30.2 °F 87% 29.81 in 2.5 mi WNW 13.8 mph - N/A   Overcast
5:35 PM 33.8 °F 26.4 °F 30.2 °F 87% 29.81 in 10.0 mi WNW 9.2 mph - N/A   Overcast
5:55 PM 35.6 °F 26.2 °F 28.4 °F 75% 29.83 in 5.0 mi NW 15.0 mph 18.4 mph N/A   Overcast
6:15 PM 33.8 °F 25.8 °F 30.2 °F 87% 29.83 in 8.0 mi WNW 10.4 mph 17.3 mph N/A   Overcast
6:35 PM 33.8 °F 24.8 °F 30.2 °F 87% 29.84 in 7.0 mi NW 12.7 mph 19.6 mph N/A   Overcast
6:55 PM 33.8 °F 26.4 °F 30.2 °F 87% 29.84 in 4.0 mi NW 9.2 mph 17.3 mph N/A   Overcast
7:15 PM 33.8 °F 24.8 °F 30.2 °F 87% 29.85 in 4.0 mi NW 12.7 mph 19.6 mph N/A   Overcast
7:35 PM 33.8 °F 24.8 °F 30.2 °F 87% 29.86 in 3.0 mi WNW 12.7 mph - N/A   Mostly Cloudy
7:55 PM 33.8 °F 25.3 °F 30.2 °F 87% 29.86 in 2.0 mi NW 11.5 mph 18.4 mph N/A   Overcast
8:15 PM 33.8 °F 26.4 °F 30.2 °F 87% 29.87 in 3.0 mi NW 9.2 mph - 0.01 in   Overcast
8:35 PM 33.8 °F 23.9 °F 30.2 °F 87% 29.87 in 4.0 mi NW 15.0 mph 23.0 mph 0.01 in   Overcast
8:55 PM 33.8 °F 25.3 °F 28.4 °F 81% 29.87 in 10.0 mi WNW 11.5 mph 17.3 mph 0.01 in   Overcast
9:15 PM 33.8 °F 25.8 °F 28.4 °F 81% 29.87 in 10.0 mi WNW 10.4 mph - N/A   Overcast
9:35 PM 33.8 °F 25.3 °F 28.4 °F 81% 29.88 in 10.0 mi NW 11.5 mph - N/A   Overcast
9:55 PM 33.8 °F 25.3 °F 30.2 °F 87% 29.88 in 3.0 mi NNW 11.5 mph - N/A   Mostly Cloudy
10:15 PM 33.8 °F 29.6 °F 30.2 °F 87% 29.88 in 3.0 mi NNW 4.6 mph - N/A   Overcast
10:35 PM 33.8 °F 26.4 °F 30.2 °F 87% 29.89 in 3.0 mi NW 9.2 mph - 0.01 in   Mostly Cloudy
10:55 PM 33.8 °F 26.4 °F 28.4 °F 81% 29.89 in 3.0 mi WNW 9.2 mph - 0.01 in   Overcast
11:15 PM 33.8 °F 27.0 °F 30.2 °F 87% 29.89 in 5.0 mi WNW 8.1 mph - N/A   Overcast
11:35 PM 33.8 °F 27.0 °F 30.2 °F 87% 29.89 in 9.0 mi WNW 8.1 mph - N/A   Mostly Cloudy
11:55 PM 33.8 °F 27.0 °F 30.2 °F 87% 29.90 in 10.0 mi NW 8.1 mph - N/A   Overcast